createdAt,value
2022-11-16T00:03:23.985Z,22.8
2022-11-16T00:08:54.549Z,22.8
2022-11-16T00:14:24.039Z,22.8
2022-11-16T00:19:54.572Z,22.8
2022-11-16T00:25:25.016Z,22.8
2022-11-16T00:30:54.519Z,22.8
2022-11-16T00:36:25.032Z,22.8
2022-11-16T00:41:55.561Z,22.7
2022-11-16T00:47:26.040Z,22.7
2022-11-16T00:52:56.560Z,22.7
2022-11-16T00:58:25.993Z,22.7
2022-11-16T01:03:56.496Z,22.8
2022-11-16T01:09:26.994Z,22.9
2022-11-16T01:14:56.440Z,22.9
2022-11-16T01:20:27.166Z,22.9
2022-11-16T01:25:57.489Z,22.9
2022-11-16T01:31:26.877Z,22.9
2022-11-16T01:36:57.363Z,22.9
2022-11-16T01:42:27.869Z,22.9
2022-11-16T01:47:58.482Z,23
2022-11-16T01:53:28.951Z,22.9
2022-11-16T01:58:59.566Z,22.9
2022-11-16T02:04:30.013Z,22.9
2022-11-16T02:10:00.494Z,22.9
2022-11-16T02:15:30.006Z,22.9
2022-11-16T02:21:00.447Z,22.9
2022-11-16T02:26:30.992Z,22.9
2022-11-16T02:32:00.451Z,22.8
2022-11-16T02:37:30.889Z,22.8
2022-11-16T02:43:01.387Z,22.8
2022-11-16T02:48:31.210Z,22.8
2022-11-16T02:54:01.357Z,22.8
2022-11-16T02:59:31.824Z,22.8
2022-11-16T03:05:01.348Z,22.8
2022-11-16T03:10:31.800Z,22.7
2022-11-16T03:16:01.281Z,22.7
2022-11-16T03:21:31.791Z,22.6
2022-11-16T03:27:02.222Z,22.7
2022-11-16T03:32:31.718Z,22.8
2022-11-16T03:38:01.240Z,22.9
2022-11-16T03:43:31.713Z,22.9
2022-11-16T03:49:02.179Z,22.8
2022-11-16T03:54:31.678Z,22.7
2022-11-16T04:00:02.242Z,22.7
2022-11-16T04:05:32.849Z,22.6
2022-11-16T04:11:03.326Z,22.6
2022-11-16T04:16:33.803Z,22.6
2022-11-16T04:22:04.404Z,22.6
2022-11-16T04:27:34.894Z,22.6
2022-11-16T04:33:05.356Z,22.6
2022-11-16T04:38:36.289Z,22.6
2022-11-16T04:44:06.441Z,22.6
2022-11-16T04:49:35.902Z,22.6
2022-11-16T04:55:06.398Z,22.6
2022-11-16T05:00:36.914Z,22.6
2022-11-16T05:06:07.468Z,22.6
2022-11-16T05:11:37.953Z,22.6
2022-11-16T05:17:08.462Z,22.6
2022-11-16T05:22:39.026Z,22.6
2022-11-16T05:28:09.489Z,22.6
2022-11-16T05:33:40.011Z,22.6
2022-11-16T05:39:10.552Z,22.6
2022-11-16T05:44:41.052Z,22.6
2022-11-16T05:50:11.558Z,22.5
2022-11-16T05:55:42.131Z,22.5
2022-11-16T06:01:12.585Z,22.5
2022-11-16T06:06:43.161Z,22.5
2022-11-16T06:12:13.725Z,22.5
2022-11-16T06:17:44.729Z,22.6
2022-11-16T06:23:14.779Z,22.6
2022-11-16T06:28:45.248Z,22.6
2022-11-16T06:34:16.044Z,22.6
2022-11-16T06:39:46.319Z,22.6
2022-11-16T06:45:16.786Z,22.5
2022-11-16T06:50:47.558Z,22.5
2022-11-16T06:56:16.803Z,22.5
2022-11-16T07:01:47.272Z,22.5
2022-11-16T07:07:16.856Z,22.5
2022-11-16T07:12:47.486Z,22.4
2022-11-16T07:18:16.737Z,22.5
2022-11-16T07:23:47.511Z,22.5
2022-11-16T07:29:17.680Z,22.4
2022-11-16T07:34:47.168Z,22.4
2022-11-16T07:40:17.888Z,22.4
2022-11-16T07:45:48.125Z,22.4
2022-11-16T07:51:18.880Z,22.4
2022-11-16T07:56:49.662Z,22.4
2022-11-16T08:02:19.832Z,22.4
2022-11-16T08:07:50.432Z,22.4
2022-11-16T08:13:21.011Z,22.4
2022-11-16T08:18:51.443Z,22.4
2022-11-16T08:24:21.946Z,22.4
2022-11-16T08:29:52.559Z,22.4
2022-11-16T08:35:23.045Z,22.3
2022-11-16T08:40:53.518Z,22.3
2022-11-16T08:46:24.139Z,22.3
2022-11-16T08:51:53.496Z,22.3
2022-11-16T08:57:23.983Z,22.4
2022-11-16T09:02:54.585Z,22.4
2022-11-16T09:08:25.048Z,22.4
2022-11-16T09:13:55.525Z,22.4
2022-11-16T09:19:26.107Z,22.5
2022-11-16T09:24:55.501Z,22.5
2022-11-16T09:30:25.960Z,22.5
2022-11-16T09:35:55.480Z,22.5
2022-11-16T09:41:25.914Z,22.5
2022-11-16T09:46:56.437Z,22.5
2022-11-16T09:52:26.017Z,22.6
2022-11-16T09:57:56.349Z,22.6
2022-11-16T10:03:27.177Z,22.6
2022-11-16T10:08:57.717Z,22.6
2022-11-16T10:14:28.069Z,22.6
2022-11-16T10:19:58.565Z,22.6
2022-11-16T10:25:29.261Z,22.6
2022-11-16T10:30:59.755Z,22.6
2022-11-16T10:36:30.193Z,22.6
2022-11-16T10:42:06.059Z,22.7
2022-11-16T10:47:33.929Z,22.7
2022-11-16T10:53:01.737Z,22.7
2022-11-16T10:58:31.366Z,22.7
2022-11-16T11:04:01.842Z,22.7
2022-11-16T11:09:32.314Z,22.7
2022-11-16T11:15:01.818Z,22.7
2022-11-16T11:20:32.280Z,22.7
2022-11-16T11:26:02.861Z,22.7
2022-11-16T11:31:32.455Z,22.8
2022-11-16T11:37:02.824Z,22.7
2022-11-16T11:42:33.304Z,22.8
2022-11-16T11:48:02.816Z,22.8
2022-11-16T11:53:33.643Z,22.9
2022-11-16T11:59:02.770Z,22.9
2022-11-16T12:04:33.348Z,22.9
2022-11-16T12:10:03.761Z,22.9
2022-11-16T12:15:34.329Z,22.9
2022-11-16T12:21:04.931Z,22.9
2022-11-16T12:26:35.396Z,23
2022-11-16T12:32:05.890Z,23
2022-11-16T12:37:36.574Z,22.9
2022-11-16T12:43:07.050Z,23
2022-11-16T12:48:37.494Z,23
2022-11-16T12:54:08.018Z,23
2022-11-16T12:59:37.480Z,23
2022-11-16T13:05:07.954Z,23
2022-11-16T13:10:38.567Z,23
2022-11-16T13:16:07.913Z,23
2022-11-16T13:21:38.412Z,23
2022-11-16T13:27:09.009Z,23
2022-11-16T13:32:39.474Z,23
2022-11-16T13:38:10.035Z,23
2022-11-16T13:43:40.621Z,23
2022-11-16T13:49:11.088Z,23
2022-11-16T13:54:46.384Z,23
2022-11-16T14:00:11.210Z,23
2022-11-16T14:05:41.557Z,23
2022-11-16T14:11:12.036Z,22.9
2022-11-16T14:16:41.634Z,23
2022-11-16T14:22:12.011Z,22.9
2022-11-16T14:27:42.473Z,22.9
2022-11-16T14:33:12.203Z,22.8
2022-11-16T14:38:42.432Z,22.8
2022-11-16T14:44:11.937Z,22.8
2022-11-16T14:49:42.447Z,22.8
2022-11-16T14:55:11.902Z,22.8
2022-11-16T15:00:42.380Z,22.8
2022-11-16T15:06:12.919Z,22.8
2022-11-16T15:11:42.376Z,22.7
2022-11-16T15:17:12.845Z,22.7
2022-11-16T15:22:43.418Z,22.7
2022-11-16T15:28:13.899Z,22.7
2022-11-16T15:33:44.585Z,22.7
2022-11-16T15:39:15.124Z,22.7
2022-11-16T15:44:45.590Z,22.7
2022-11-16T15:50:16.068Z,22.7
2022-11-16T15:55:46.648Z,22.7
2022-11-16T16:01:17.294Z,22.7
2022-11-16T16:06:47.688Z,22.7
2022-11-16T16:12:18.191Z,22.8
2022-11-16T16:17:48.762Z,22.9
2022-11-16T16:23:19.236Z,22.9
2022-11-16T16:28:48.862Z,23
2022-11-16T16:34:19.214Z,23.1
2022-11-16T16:39:49.671Z,23.2
2022-11-16T16:45:19.281Z,23.2
2022-11-16T16:50:49.607Z,23.2
2022-11-16T16:56:20.090Z,23.3
2022-11-16T17:01:50.813Z,23.3
2022-11-16T17:07:21.204Z,23.3
2022-11-16T17:12:51.668Z,23.3
2022-11-16T17:18:22.363Z,23.3
2022-11-16T17:23:52.710Z,23.3
2022-11-16T17:29:23.351Z,23.3
2022-11-16T17:34:54.088Z,23.3
2022-11-16T17:40:24.420Z,23.3
2022-11-16T17:45:53.911Z,23.3
2022-11-16T17:51:24.519Z,23.3
2022-11-16T17:56:54.850Z,23.4
2022-11-16T18:02:25.445Z,23.3
2022-11-16T18:07:56.049Z,23.4
2022-11-16T18:13:26.521Z,23.4
2022-11-16T18:18:56.012Z,23.4
2022-11-16T18:24:26.826Z,23.3
2022-11-16T18:29:57.209Z,23.2
2022-11-16T18:35:27.667Z,23.2
2022-11-16T18:40:57.200Z,23.2
2022-11-16T18:46:27.640Z,23.2
2022-11-16T18:51:58.109Z,23.2
2022-11-16T18:57:28.721Z,23.2
2022-11-16T19:02:59.165Z,23.2
2022-11-16T19:08:29.660Z,23.2
2022-11-16T19:14:00.275Z,23.2
2022-11-16T19:19:30.733Z,23.2
2022-11-16T19:25:05.662Z,23.2
2022-11-16T19:30:31.915Z,23.2
2022-11-16T19:36:02.367Z,23.2
2022-11-16T19:41:32.944Z,23.2
2022-11-16T19:47:03.544Z,23.2
2022-11-16T19:52:33.902Z,23.2
2022-11-16T19:58:03.385Z,23.2
2022-11-16T20:03:34.351Z,23.2
2022-11-16T20:09:03.344Z,23.2
2022-11-16T20:14:34.081Z,23.1
2022-11-16T20:20:04.442Z,23.1
2022-11-16T20:25:33.789Z,23.1
2022-11-16T20:31:04.261Z,23.1
2022-11-16T20:36:34.879Z,23
2022-11-16T20:42:04.267Z,23
2022-11-16T20:47:34.789Z,23.1
2022-11-16T20:53:04.262Z,23.2
2022-11-16T20:58:34.703Z,23.2
2022-11-16T21:04:05.178Z,23.1
2022-11-16T21:09:35.893Z,23.1
2022-11-16T21:15:06.245Z,23.1
2022-11-16T21:20:36.749Z,23.1
2022-11-16T21:26:06.344Z,23.1
2022-11-16T21:31:36.721Z,23.1
2022-11-16T21:37:07.162Z,23.1
2022-11-16T21:42:36.762Z,23.1
2022-11-16T21:48:07.125Z,23.1
2022-11-16T21:53:37.141Z,23.1
2022-11-16T21:59:07.205Z,23.1
2022-11-16T22:04:37.677Z,23
2022-11-16T22:10:08.240Z,23
2022-11-16T22:15:38.849Z,23
2022-11-16T22:21:09.313Z,23
2022-11-16T22:26:39.781Z,23
2022-11-16T22:32:10.660Z,23
2022-11-16T22:37:39.721Z,23
2022-11-16T22:43:10.238Z,22.9
2022-11-16T22:48:39.824Z,22.8
2022-11-16T22:54:10.188Z,22.8
2022-11-16T22:59:40.627Z,22.8
2022-11-16T23:05:10.269Z,22.7
2022-11-16T23:10:44.007Z,22.7
2022-11-16T23:16:11.107Z,22.7
2022-11-16T23:21:41.862Z,22.7
2022-11-16T23:27:12.214Z,22.7
2022-11-16T23:32:42.677Z,22.7
2022-11-16T23:38:13.388Z,22.7
2022-11-16T23:43:43.747Z,22.7
2022-11-16T23:49:14.263Z,22.7
2022-11-16T23:54:43.849Z,22.7
